Time;durP1;ratioP1;P1;durP2;ratioP2;P2;SDS_P1;SDS_P2;PMS_P1;PMS_P2;Temp;Humidity;BMP_temperature;BMP_pressure;BME280_temperature;BME280_humidity;BME280_pressure;Samples;Min_cycle;Max_cycle;Signal;HPM_P1;HPM_P2
2022/03/01 00:02:13;;;;;;;12.87;6.67;;;4.00;90.90;;;;;;4972300;28;20110;-80
2022/03/01 00:04:38;;;;;;;14.27;6.90;;;4.00;91.10;;;;;;4973158;28;20034;-79
2022/03/01 00:07:04;;;;;;;15.77;6.70;;;4.00;91.10;;;;;;4972373;28;20027;-79
2022/03/01 00:09:30;;;;;;;13.37;6.83;;;4.00;90.70;;;;;;4972816;28;20118;-79
2022/03/01 00:11:56;;;;;;;13.63;6.63;;;3.90;91.30;;;;;;4973710;28;20031;-80
2022/03/01 00:14:22;;;;;;;12.27;6.63;;;3.90;91.60;;;;;;4974085;28;20027;-79
2022/03/01 00:16:47;;;;;;;12.17;6.33;;;3.90;91.40;;;;;;4976312;28;20221;-83
2022/03/01 00:19:13;;;;;;;14.30;6.77;;;3.80;91.40;;;;;;4977216;28;20387;-76
2022/03/01 00:21:39;;;;;;;15.10;7.03;;;3.90;91.20;;;;;;4976957;28;20038;-78
2022/03/01 00:24:04;;;;;;;15.50;6.90;;;3.80;90.90;;;;;;4976728;28;20471;-78
2022/03/01 00:26:30;;;;;;;15.20;6.67;;;3.80;90.40;;;;;;4975397;28;20475;-78
2022/03/01 00:28:56;;;;;;;11.90;6.30;;;3.90;90.20;;;;;;4975233;28;20062;-77
2022/03/01 00:31:21;;;;;;;13.87;6.40;;;3.80;90.50;;;;;;4974767;28;20023;-77
2022/03/01 00:33:47;;;;;;;13.03;6.37;;;3.80;90.40;;;;;;4975527;28;20031;-77
2022/03/01 00:36:13;;;;;;;12.60;6.40;;;3.80;90.30;;;;;;4975127;28;20030;-77
2022/03/01 00:38:39;;;;;;;11.43;6.13;;;3.80;90.20;;;;;;4975454;28;20399;-77
2022/03/01 00:41:04;;;;;;;13.27;6.33;;;3.70;89.10;;;;;;4974540;28;20050;-78
2022/03/01 00:43:30;;;;;;;12.67;5.57;;;3.80;88.60;;;;;;4975245;28;20028;-78
2022/03/01 00:45:56;;;;;;;9.97;5.77;;;3.70;88.40;;;;;;4975238;28;20026;-77
2022/03/01 00:48:22;;;;;;;12.07;5.93;;;3.80;88.50;;;;;;4975674;28;20484;-79
2022/03/01 00:50:48;;;;;;;11.67;5.77;;;3.70;88.00;;;;;;4975025;28;20019;-77
2022/03/01 00:53:14;;;;;;;12.47;6.13;;;3.80;87.40;;;;;;4974891;28;20033;-77
2022/03/01 00:55:40;;;;;;;10.00;5.47;;;3.70;87.50;;;;;;4975102;28;20472;-78
2022/03/01 00:58:05;;;;;;;11.60;5.63;;;3.70;87.60;;;;;;4974583;28;20431;-78
2022/03/01 01:00:32;;;;;;;11.60;5.73;;;3.70;87.90;;;;;;4976545;28;20053;-79
2022/03/01 01:02:58;;;;;;;11.20;6.00;;;3.70;88.70;;;;;;4976163;28;20026;-81
2022/03/01 01:05:24;;;;;;;14.50;6.30;;;3.70;89.30;;;;;;4974922;28;20051;-77
2022/03/01 01:07:51;;;;;;;15.30;6.20;;;3.60;89.80;;;;;;4974618;28;20421;-77
2022/03/01 01:10:18;;;;;;;11.53;5.67;;;3.70;90.00;;;;;;4974453;28;20023;-77
2022/03/01 01:12:43;;;;;;;12.10;6.40;;;3.70;88.70;;;;;;4974436;28;20027;-78
2022/03/01 01:15:10;;;;;;;13.03;5.73;;;3.70;87.90;;;;;;4972821;28;20041;-78
2022/03/01 01:17:36;;;;;;;10.77;5.60;;;3.70;85.60;;;;;;4975925;28;20063;-77
2022/03/01 01:20:05;;;;;;;11.20;5.70;;;3.70;86.60;;;;;;4975095;28;20038;-77
2022/03/01 01:22:40;;;;;;;11.70;5.80;;;3.60;87.40;;;;;;4975096;28;20038;-78
2022/03/01 01:25:20;;;;;;;12.63;5.80;;;3.60;86.80;;;;;;4974743;28;20023;-78
2022/03/01 01:27:49;;;;;;;11.07;5.67;;;3.60;87.70;;;;;;4976447;28;20027;-78
2022/03/01 01:30:17;;;;;;;11.07;6.20;;;3.60;87.80;;;;;;4975818;28;20388;-78
2022/03/01 01:32:44;;;;;;;12.03;5.23;;;3.60;86.90;;;;;;4975275;28;20050;-78
2022/03/01 01:35:12;;;;;;;11.47;5.07;;;3.50;86.50;;;;;;4974751;28;20443;-78
2022/03/01 01:37:38;;;;;;;15.97;6.30;;;3.50;86.90;;;;;;4975261;28;20054;-78
2022/03/01 01:40:06;;;;;;;11.37;5.47;;;3.50;86.00;;;;;;4974463;28;20055;-78
2022/03/01 01:42:32;;;;;;;12.23;5.67;;;3.50;85.70;;;;;;4974822;28;20031;-78
2022/03/01 01:44:57;;;;;;;10.97;5.47;;;3.50;86.30;;;;;;4974930;28;20030;-78
2022/03/01 01:47:23;;;;;;;14.37;5.20;;;3.50;85.40;;;;;;4975431;28;20030;-78
2022/03/01 01:49:49;;;;;;;12.63;5.70;;;3.40;84.60;;;;;;4975045;28;20551;-78
2022/03/01 01:52:15;;;;;;;11.30;5.97;;;3.40;85.90;;;;;;4974317;28;20117;-78
2022/03/01 01:54:40;;;;;;;9.70;4.83;;;3.40;84.40;;;;;;4974707;28;20030;-78
2022/03/01 01:57:18;;;;;;;11.83;5.27;;;3.40;84.60;;;;;;4974434;28;20031;-79
2022/03/01 01:59:44;;;;;;;10.97;5.37;;;3.30;85.70;;;;;;4974622;28;20027;-78
2022/03/01 02:02:14;;;;;;;13.80;5.67;;;3.30;86.00;;;;;;4974362;28;20031;-78
2022/03/01 02:04:40;;;;;;;11.70;5.30;;;3.30;85.90;;;;;;4976124;28;20063;-78
2022/03/01 02:07:07;;;;;;;10.33;5.17;;;3.30;86.50;;;;;;4974055;28;20030;-77
2022/03/01 02:09:33;;;;;;;12.60;5.47;;;3.20;86.20;;;;;;4974519;28;20081;-77
2022/03/01 02:11:58;;;;;;;13.13;5.77;;;3.20;85.80;;;;;;4975621;28;20151;-78
2022/03/01 02:14:24;;;;;;;12.20;5.80;;;3.20;86.10;;;;;;4975031;28;20066;-78
2022/03/01 02:16:50;;;;;;;12.73;5.13;;;3.20;86.50;;;;;;4975739;28;20482;-78
2022/03/01 02:19:15;;;;;;;11.17;5.20;;;3.20;85.10;;;;;;4973765;28;20473;-78
2022/03/01 02:21:49;;;;;;;11.40;5.33;;;3.10;86.00;;;;;;4974329;28;20117;-78
2022/03/01 02:24:16;;;;;;;11.67;4.73;;;3.10;86.60;;;;;;4973843;28;20027;-77
2022/03/01 02:26:42;;;;;;;13.03;5.83;;;3.10;84.90;;;;;;4974286;28;20027;-77
2022/03/01 02:29:08;;;;;;;12.33;5.87;;;3.00;85.10;;;;;;4974832;28;20090;-76
2022/03/01 02:31:33;;;;;;;10.60;5.50;;;2.90;85.60;;;;;;4974775;28;20038;-77
2022/03/01 02:33:59;;;;;;;14.63;6.43;;;2.90;86.60;;;;;;4973960;28;20472;-76
2022/03/01 02:36:25;;;;;;;11.43;5.00;;;2.80;86.00;;;;;;4973056;28;20034;-77
2022/03/01 02:38:51;;;;;;;11.70;5.70;;;2.80;86.90;;;;;;4973893;28;20035;-76
2022/03/01 02:41:16;;;;;;;13.33;5.70;;;2.80;87.50;;;;;;4973118;28;20138;-77
2022/03/01 02:43:42;;;;;;;12.20;5.33;;;2.80;86.70;;;;;;4973833;28;20403;-77
2022/03/01 02:46:08;;;;;;;11.27;5.37;;;2.70;87.80;;;;;;4973342;28;20283;-77
2022/03/01 02:48:33;;;;;;;12.23;5.83;;;2.80;86.70;;;;;;4974916;28;20026;-77
2022/03/01 02:50:59;;;;;;;14.43;5.80;;;2.80;86.50;;;;;;4973605;28;20033;-76
2022/03/01 02:53:24;;;;;;;12.83;5.37;;;2.80;86.80;;;;;;4972591;28;20061;-76
2022/03/01 02:55:50;;;;;;;11.33;5.47;;;2.70;86.40;;;;;;4973490;28;20030;-76
2022/03/01 02:58:16;;;;;;;11.93;5.40;;;2.70;86.90;;;;;;4974124;28;20031;-76
2022/03/01 03:00:44;;;;;;;9.77;4.63;;;2.70;85.60;;;;;;4973453;28;20027;-77
2022/03/01 03:03:11;;;;;;;11.83;5.27;;;2.70;86.30;;;;;;4973091;28;20476;-77
2022/03/01 03:05:37;;;;;;;13.43;5.60;;;2.70;87.40;;;;;;4973213;28;20027;-76
2022/03/01 03:08:03;;;;;;;11.83;5.57;;;2.70;86.90;;;;;;4973278;28;20113;-76
2022/03/01 03:10:28;;;;;;;16.00;6.30;;;2.70;87.00;;;;;;4973870;28;20030;-77
2022/03/01 03:12:54;;;;;;;13.77;6.00;;;2.60;87.50;;;;;;4974293;28;20035;-76
2022/03/01 03:15:20;;;;;;;14.23;5.50;;;2.60;89.40;;;;;;4972684;28;20031;-76
2022/03/01 03:17:45;;;;;;;12.40;5.70;;;2.60;86.90;;;;;;4973242;28;20487;-76
2022/03/01 03:20:11;;;;;;;14.17;6.10;;;2.60;89.20;;;;;;4972570;28;20031;-76
2022/03/01 03:22:37;;;;;;;11.83;5.57;;;2.60;88.20;;;;;;4972948;28;20030;-76
2022/03/01 03:25:04;;;;;;;14.60;5.80;;;2.50;88.60;;;;;;4972977;28;20419;-76
2022/03/01 03:27:30;;;;;;;12.40;5.47;;;2.50;88.20;;;;;;4972444;28;20032;-75
2022/03/01 03:29:55;;;;;;;12.43;5.83;;;2.50;90.00;;;;;;4972906;28;20490;-76
2022/03/01 03:32:21;;;;;;;12.40;5.63;;;2.50;89.90;;;;;;4972264;28;20494;-76
2022/03/01 03:34:47;;;;;;;12.03;5.50;;;2.50;90.00;;;;;;4973012;28;20030;-76
2022/03/01 03:37:14;;;;;;;13.00;5.47;;;2.40;90.30;;;;;;4973653;28;20023;-76
2022/03/01 03:39:39;;;;;;;13.10;5.63;;;2.40;90.50;;;;;;4975603;28;20026;-76
2022/03/01 03:42:05;;;;;;;16.03;6.20;;;2.40;90.50;;;;;;4976169;28;20030;-76
2022/03/01 03:44:30;;;;;;;13.93;6.33;;;2.30;91.20;;;;;;4993218;28;20027;-76
2022/03/01 03:46:56;;;;;;;14.00;6.00;;;2.30;91.50;;;;;;4975978;28;20026;-75
2022/03/01 03:49:23;;;;;;;14.80;6.07;;;2.30;91.30;;;;;;4976711;28;20124;-75
2022/03/01 03:51:48;;;;;;;12.90;5.90;;;2.30;91.20;;;;;;4979599;28;20137;-75
2022/03/01 03:54:14;;;;;;;16.33;6.17;;;2.30;91.50;;;;;;4979337;28;20502;-76
2022/03/01 03:56:40;;;;;;;13.57;5.63;;;2.30;91.60;;;;;;4979614;28;20033;-75
2022/03/01 03:59:07;;;;;;;15.07;5.97;;;2.20;91.90;;;;;;4979356;28;20399;-76
2022/03/01 04:01:33;;;;;;;15.17;6.43;;;2.20;92.00;;;;;;4996549;28;20029;-76
2022/03/01 04:04:00;;;;;;;13.43;5.50;;;2.10;91.70;;;;;;4980534;28;20391;-77
2022/03/01 04:06:26;;;;;;;14.27;5.70;;;2.20;91.80;;;;;;4997404;28;20026;-79
2022/03/01 04:08:52;;;;;;;15.47;6.40;;;2.10;92.00;;;;;;4980207;28;20036;-77
2022/03/01 04:11:18;;;;;;;12.47;5.73;;;2.10;92.00;;;;;;4997155;28;20030;-78
2022/03/01 04:13:43;;;;;;;11.37;5.53;;;2.10;92.40;;;;;;4979935;28;20071;-78
2022/03/01 04:16:09;;;;;;;14.53;5.90;;;2.10;92.30;;;;;;4997087;28;20037;-82
2022/03/01 04:18:35;;;;;;;14.80;6.03;;;2.10;92.60;;;;;;4980117;28;20030;-77
2022/03/01 04:21:01;;;;;;;14.73;5.77;;;2.00;93.00;;;;;;4979856;28;20030;-77
2022/03/01 04:23:27;;;;;;;14.90;5.90;;;2.00;93.00;;;;;;4996779;28;20030;-77
2022/03/01 04:25:53;;;;;;;11.43;5.43;;;2.00;93.00;;;;;;4979898;28;20125;-78
2022/03/01 04:28:19;;;;;;;12.83;5.97;;;2.00;92.60;;;;;;4979364;28;20486;-77
2022/03/01 04:30:45;;;;;;;13.77;6.27;;;2.00;92.80;;;;;;4979602;28;20084;-77
2022/03/01 04:33:11;;;;;;;13.57;6.37;;;2.00;92.90;;;;;;4979256;28;20117;-78
2022/03/01 04:35:36;;;;;;;16.43;6.37;;;1.90;93.10;;;;;;4979750;28;20084;-77
2022/03/01 04:38:02;;;;;;;13.23;5.73;;;1.80;93.30;;;;;;4979629;28;20575;-77
2022/03/01 04:40:28;;;;;;;15.33;6.20;;;1.80;93.60;;;;;;4996533;28;20133;-77
2022/03/01 04:42:54;;;;;;;14.90;5.93;;;1.70;93.80;;;;;;4979676;28;20061;-77
2022/03/01 04:45:19;;;;;;;13.43;5.77;;;1.70;93.80;;;;;;4979085;28;20027;-77
2022/03/01 04:47:45;;;;;;;13.50;6.37;;;1.70;94.20;;;;;;4978986;28;20388;-75
2022/03/01 04:50:12;;;;;;;13.07;5.50;;;1.70;94.00;;;;;;4978467;28;20022;-78
2022/03/01 04:52:37;;;;;;;14.83;6.10;;;1.60;94.00;;;;;;4978500;28;20121;-74
2022/03/01 04:55:04;;;;;;;14.17;6.27;;;1.60;94.10;;;;;;4996117;28;20112;-75
2022/03/01 04:57:30;;;;;;;15.27;6.13;;;1.60;94.10;;;;;;4977980;28;20032;-75
2022/03/01 04:59:56;;;;;;;14.00;6.27;;;1.60;94.30;;;;;;4978099;28;20027;-76
2022/03/01 05:02:21;;;;;;;15.27;6.33;;;1.60;94.10;;;;;;4978497;28;20391;-77
2022/03/01 05:04:47;;;;;;;14.57;6.30;;;1.60;93.80;;;;;;4978894;28;20018;-76
2022/03/01 05:07:12;;;;;;;12.03;5.67;;;1.60;94.10;;;;;;4995702;28;20085;-78
2022/03/01 05:09:39;;;;;;;16.67;6.43;;;1.50;94.00;;;;;;4978648;28;20440;-75
2022/03/01 05:12:05;;;;;;;16.70;6.90;;;1.50;94.30;;;;;;4978452;28;20030;-77
2022/03/01 05:14:30;;;;;;;12.43;5.97;;;1.60;94.30;;;;;;4978423;28;20030;-77
2022/03/01 05:16:56;;;;;;;13.60;6.93;;;1.60;94.20;;;;;;4978874;28;20431;-77
2022/03/01 05:19:22;;;;;;;16.23;6.17;;;1.50;94.10;;;;;;4978834;28;20522;-77
2022/03/01 05:21:47;;;;;;;13.80;6.03;;;1.50;94.10;;;;;;4978554;28;20031;-75
2022/03/01 05:24:14;;;;;;;13.70;6.57;;;1.50;94.20;;;;;;4977968;28;20469;-79
2022/03/01 05:26:39;;;;;;;14.67;5.80;;;1.50;94.50;;;;;;4995500;28;20050;-75
2022/03/01 05:29:07;;;;;;;14.43;6.57;;;1.50;94.40;;;;;;4977717;28;20073;-76
2022/03/01 05:31:34;;;;;;;13.83;5.63;;;1.50;94.40;;;;;;4977668;28;20035;-76
2022/03/01 05:33:59;;;;;;;12.27;5.73;;;1.40;94.70;;;;;;4978305;28;20170;-76
2022/03/01 05:36:25;;;;;;;12.77;6.33;;;1.40;94.40;;;;;;4977680;28;20512;-76
2022/03/01 05:38:51;;;;;;;13.70;6.47;;;1.40;94.50;;;;;;4995605;28;20066;-76
2022/03/01 05:41:19;;;;;;;14.43;6.27;;;1.40;94.80;;;;;;4977350;28;20049;-76
2022/03/01 05:43:45;;;;;;;14.63;6.47;;;1.30;94.80;;;;;;4977658;28;20034;-76
2022/03/01 05:46:10;;;;;;;13.10;6.07;;;1.30;94.70;;;;;;4978230;28;20026;-77
2022/03/01 05:48:36;;;;;;;12.20;6.00;;;1.30;95.10;;;;;;4994578;28;20032;-76
2022/03/01 05:51:04;;;;;;;13.00;6.03;;;1.20;95.10;;;;;;4978048;28;20113;-76
2022/03/01 05:53:30;;;;;;;13.37;6.07;;;1.30;95.00;;;;;;4977225;28;20030;-76
2022/03/01 05:55:55;;;;;;;13.23;6.37;;;1.30;95.00;;;;;;4977674;28;20030;-75
2022/03/01 05:58:21;;;;;;;13.07;6.33;;;1.30;94.90;;;;;;4977377;28;20031;-76
2022/03/01 06:00:47;;;;;;;17.13;6.30;;;1.30;94.90;;;;;;4977300;28;20466;-76
2022/03/01 06:03:12;;;;;;;19.23;7.17;;;1.30;95.00;;;;;;4977484;28;20117;-76
2022/03/01 06:05:38;;;;;;;12.07;5.90;;;1.30;94.70;;;;;;4977134;28;20030;-76
2022/03/01 06:08:04;;;;;;;16.30;6.60;;;1.30;95.00;;;;;;4977582;28;20080;-76
2022/03/01 06:10:30;;;;;;;15.00;5.83;;;1.30;95.10;;;;;;4994312;28;20029;-76
2022/03/01 06:12:56;;;;;;;12.03;5.80;;;1.30;95.00;;;;;;4976439;28;20033;-75
2022/03/01 06:15:22;;;;;;;14.83;6.00;;;1.30;94.90;;;;;;4976926;28;20470;-76
2022/03/01 06:17:47;;;;;;;11.27;5.63;;;1.40;94.90;;;;;;4977469;28;20034;-76
2022/03/01 06:20:13;;;;;;;14.13;6.03;;;1.40;95.00;;;;;;4977098;28;20032;-76
2022/03/01 06:22:40;;;;;;;13.77;6.53;;;1.40;95.00;;;;;;4976767;28;20042;-76
2022/03/01 06:25:08;;;;;;;15.03;6.13;;;1.40;94.90;;;;;;4977664;28;20030;-77
2022/03/01 06:27:35;;;;;;;17.37;5.80;;;1.30;95.10;;;;;;4976948;28;20030;-77
2022/03/01 06:30:01;;;;;;;18.73;6.67;;;1.30;95.10;;;;;;4977579;28;20035;-77
2022/03/01 06:32:26;;;;;;;15.30;6.50;;;1.30;94.90;;;;;;4976860;28;20105;-77
2022/03/01 06:34:52;;;;;;;16.90;6.67;;;1.30;95.00;;;;;;4977223;28;20040;-77
2022/03/01 06:37:18;;;;;;;15.10;6.97;;;1.20;95.30;;;;;;4976763;28;20022;-80
2022/03/01 06:39:44;;;;;;;14.83;6.47;;;1.30;95.20;;;;;;4977114;28;20117;-75
2022/03/01 06:42:11;;;;;;;15.57;7.57;;;1.30;95.10;;;;;;4976864;28;20108;-75
2022/03/01 06:44:38;;;;;;;13.73;5.93;;;1.30;95.10;;;;;;4976177;28;20033;-76
2022/03/01 06:47:05;;;;;;;16.23;6.57;;;1.30;95.20;;;;;;4976925;28;20026;-77
2022/03/01 06:49:31;;;;;;;13.13;6.37;;;1.30;95.40;;;;;;4976447;28;20030;-75
2022/03/01 06:51:57;;;;;;;18.67;6.50;;;1.30;95.40;;;;;;4976373;28;20030;-74
2022/03/01 06:54:23;;;;;;;13.63;6.80;;;1.40;95.00;;;;;;4993033;28;20026;-75
2022/03/01 06:56:48;;;;;;;14.73;6.37;;;1.30;95.20;;;;;;4976498;28;20037;-77
2022/03/01 06:59:15;;;;;;;14.60;6.63;;;1.40;95.30;;;;;;4976072;28;20030;-77
2022/03/01 07:01:41;;;;;;;16.57;6.33;;;1.40;94.80;;;;;;4975909;28;20037;-77
2022/03/01 07:04:07;;;;;;;12.77;5.93;;;1.30;94.70;;;;;;4976110;28;20384;-77
2022/03/01 07:06:32;;;;;;;14.23;6.43;;;1.40;95.00;;;;;;4975917;28;20041;-78
2022/03/01 07:08:58;;;;;;;14.83;6.47;;;1.40;94.80;;;;;;4976653;28;20484;-77
2022/03/01 07:11:24;;;;;;;17.60;6.60;;;1.40;95.00;;;;;;4975881;28;20027;-78
2022/03/01 07:13:50;;;;;;;14.30;6.23;;;1.40;94.40;;;;;;4993710;28;20038;-76
2022/03/01 07:16:15;;;;;;;17.33;7.20;;;1.50;94.70;;;;;;4976082;28;20033;-76
2022/03/01 07:18:41;;;;;;;14.97;5.87;;;1.50;94.60;;;;;;4975655;28;20034;-76
2022/03/01 07:21:07;;;;;;;14.27;7.07;;;1.50;94.80;;;;;;4976066;28;20027;-76
2022/03/01 07:23:33;;;;;;;14.97;5.93;;;1.60;94.60;;;;;;4975411;28;20526;-77
2022/03/01 07:25:59;;;;;;;15.37;6.50;;;1.60;94.50;;;;;;4976218;28;20026;-77
2022/03/01 07:28:25;;;;;;;11.70;5.73;;;1.60;94.70;;;;;;4975700;28;20031;-77
2022/03/01 07:30:50;;;;;;;16.23;7.03;;;1.60;94.30;;;;;;4975903;28;20042;-77
2022/03/01 07:33:16;;;;;;;12.87;6.13;;;1.60;94.70;;;;;;4976098;28;20185;-77
2022/03/01 07:35:41;;;;;;;16.23;7.07;;;1.70;94.40;;;;;;4975756;28;20038;-77
2022/03/01 07:38:07;;;;;;;17.07;7.20;;;1.80;94.00;;;;;;4976139;28;20118;-78
2022/03/01 07:40:33;;;;;;;14.20;6.80;;;1.80;94.20;;;;;;4975493;28;20082;-78
2022/03/01 07:42:58;;;;;;;15.03;6.83;;;1.90;93.70;;;;;;4976252;28;20030;-78
2022/03/01 07:45:24;;;;;;;16.60;6.60;;;1.90;93.30;;;;;;4975910;28;20077;-78
2022/03/01 07:47:51;;;;;;;12.40;6.07;;;1.90;93.80;;;;;;4976015;28;20030;-78
2022/03/01 07:50:17;;;;;;;15.37;6.37;;;2.00;93.40;;;;;;4993605;28;20061;-78
2022/03/01 07:52:43;;;;;;;14.13;6.37;;;2.10;93.40;;;;;;4993174;28;20094;-78
2022/03/01 07:55:09;;;;;;;14.03;6.60;;;2.10;92.90;;;;;;4975930;28;20031;-78
2022/03/01 07:57:34;;;;;;;16.63;7.17;;;2.20;92.80;;;;;;4975302;28;20088;-78
2022/03/01 08:00:00;;;;;;;17.03;7.37;;;2.20;92.80;;;;;;4992958;28;20113;-77
2022/03/01 08:02:26;;;;;;;17.00;6.63;;;2.30;92.40;;;;;;4993800;28;20120;-77
2022/03/01 08:04:51;;;;;;;15.80;7.37;;;2.40;92.50;;;;;;4994671;28;20029;-77
2022/03/01 08:07:17;;;;;;;14.47;6.10;;;2.40;92.00;;;;;;4978146;28;20039;-77
2022/03/01 08:09:44;;;;;;;15.00;6.73;;;2.50;92.30;;;;;;4979909;28;20033;-77
2022/03/01 08:12:10;;;;;;;20.00;7.20;;;2.50;91.50;;;;;;4983698;28;20065;-78
2022/03/01 08:14:36;;;;;;;13.93;6.33;;;2.60;92.00;;;;;;4984716;28;20029;-77
2022/03/01 08:17:03;;;;;;;14.17;6.10;;;2.70;91.40;;;;;;5006215;28;20105;-77
2022/03/01 08:19:29;;;;;;;15.03;6.60;;;2.70;91.40;;;;;;4985455;28;20042;-78
2022/03/01 08:21:54;;;;;;;13.67;6.47;;;2.80;91.00;;;;;;4980123;28;20464;-77
2022/03/01 08:24:20;;;;;;;15.90;6.60;;;2.80;90.70;;;;;;4975327;28;20033;-78
2022/03/01 08:26:46;;;;;;;17.03;6.43;;;2.80;90.20;;;;;;4974726;28;20383;-78
2022/03/01 08:29:12;;;;;;;18.57;7.30;;;2.80;90.40;;;;;;4975688;28;20109;-77
2022/03/01 08:31:41;;;;;;;14.07;5.97;;;2.90;90.20;;;;;;4978386;28;20038;-79
2022/03/01 08:34:07;;;;;;;13.60;5.73;;;2.90;90.60;;;;;;4972615;28;20050;-77
2022/03/01 08:36:32;;;;;;;13.03;6.07;;;3.00;90.60;;;;;;4977396;28;20490;-79
2022/03/01 08:38:59;;;;;;;14.80;6.40;;;3.10;89.00;;;;;;4981864;28;20030;-77
2022/03/01 08:41:25;;;;;;;13.43;6.47;;;3.10;88.70;;;;;;4978168;28;20126;-80
2022/03/01 08:43:51;;;;;;;13.17;6.10;;;3.10;88.10;;;;;;4978921;28;20058;-78
2022/03/01 08:46:17;;;;;;;13.90;5.93;;;3.20;87.40;;;;;;4978508;28;20105;-78
2022/03/01 08:48:44;;;;;;;13.83;6.27;;;3.20;86.90;;;;;;4977178;28;20147;-78
2022/03/01 08:51:11;;;;;;;14.90;6.70;;;3.30;86.70;;;;;;4994506;28;20026;-77
2022/03/01 08:53:37;;;;;;;13.80;6.03;;;3.40;87.00;;;;;;4978195;28;20518;-77
2022/03/01 08:56:03;;;;;;;17.00;7.07;;;3.40;85.60;;;;;;4995800;28;20105;-79
2022/03/01 08:58:28;;;;;;;12.73;5.50;;;3.50;85.10;;;;;;4994388;28;20046;-78
2022/03/01 09:00:54;;;;;;;15.87;6.90;;;3.50;82.10;;;;;;4981607;28;20073;-77
2022/03/01 09:03:20;;;;;;;15.30;6.37;;;3.60;81.20;;;;;;4979333;28;20069;-78
2022/03/01 09:05:45;;;;;;;14.70;6.37;;;3.60;80.80;;;;;;4994924;28;20487;-77
2022/03/01 09:08:13;;;;;;;13.37;6.23;;;3.70;82.10;;;;;;4977853;28;20069;-77
2022/03/01 09:10:42;;;;;;;13.13;5.90;;;3.80;83.00;;;;;;4979600;28;20034;-77
2022/03/01 09:13:08;;;;;;;14.97;6.53;;;3.90;82.40;;;;;;4980295;28;20104;-77
2022/03/01 09:15:34;;;;;;;14.03;6.23;;;3.90;80.00;;;;;;4986863;28;20092;-78
2022/03/01 09:18:02;;;;;;;13.33;6.53;;;4.00;79.00;;;;;;4992462;28;20040;-86
2022/03/01 09:20:28;;;;;;;17.30;6.67;;;4.00;78.50;;;;;;4986306;28;20109;-78
2022/03/01 09:22:54;;;;;;;13.50;6.13;;;4.10;78.70;;;;;;4984972;28;20151;-83
2022/03/01 09:25:20;;;;;;;12.23;5.77;;;4.20;75.80;;;;;;4978408;28;20027;-84
2022/03/01 09:27:46;;;;;;;13.30;5.33;;;4.30;75.60;;;;;;4977508;28;20105;-83
2022/03/01 09:30:12;;;;;;;15.13;6.67;;;4.30;76.10;;;;;;4978801;28;20034;-83
2022/03/01 09:32:40;;;;;;;13.20;6.10;;;4.40;77.10;;;;;;4995037;28;20042;-83
2022/03/01 09:35:06;;;;;;;12.97;6.10;;;4.40;75.00;;;;;;4978382;28;20062;-83
2022/03/01 09:37:32;;;;;;;14.40;5.83;;;4.50;77.00;;;;;;4978137;28;20451;-84
2022/03/01 09:40:03;;;;;;;14.90;6.33;;;4.60;75.70;;;;;;4978626;28;20047;-84
2022/03/01 09:42:29;;;;;;;14.60;5.90;;;4.60;75.60;;;;;;4995546;28;20036;-84
2022/03/01 09:44:55;;;;;;;14.07;5.90;;;4.70;74.00;;;;;;4978696;28;20026;-84
2022/03/01 09:47:22;;;;;;;12.23;6.23;;;4.80;69.90;;;;;;4977368;28;20117;-84
2022/03/01 09:49:48;;;;;;;12.83;6.03;;;4.80;70.20;;;;;;4977395;28;20023;-84
2022/03/01 09:52:14;;;;;;;12.07;6.07;;;4.90;70.50;;;;;;4977638;28;20030;-84
2022/03/01 09:54:40;;;;;;;13.60;6.30;;;5.10;72.20;;;;;;4994710;28;20105;-84
2022/03/01 09:57:06;;;;;;;12.77;6.10;;;5.20;71.80;;;;;;4977959;28;20117;-84
2022/03/01 09:59:32;;;;;;;12.87;6.03;;;5.30;71.20;;;;;;4994429;28;20105;-83
2022/03/01 10:01:58;;;;;;;13.13;5.43;;;5.40;71.60;;;;;;4978080;28;20087;-83
2022/03/01 10:04:25;;;;;;;10.83;6.00;;;5.40;71.90;;;;;;4977900;28;20034;-84
2022/03/01 10:06:51;;;;;;;14.77;6.37;;;5.50;70.50;;;;;;4977568;28;20072;-83
2022/03/01 10:09:19;;;;;;;15.33;5.77;;;5.60;63.70;;;;;;4977590;28;20104;-82
2022/03/01 10:11:46;;;;;;;13.60;6.07;;;5.60;65.70;;;;;;4994094;28;20026;-83
2022/03/01 10:14:12;;;;;;;12.27;5.83;;;5.70;65.20;;;;;;4977499;28;20116;-84
2022/03/01 10:16:43;;;;;;;9.93;5.33;;;5.80;66.80;;;;;;4976884;28;20113;-83
2022/03/01 10:19:17;;;;;;;12.70;6.25;;;5.90;65.70;;;;;;4978224;28;20030;-84
2022/03/01 10:21:46;;;;;;;10.97;5.40;;;6.00;63.50;;;;;;4961888;28;20487;-84
2022/03/01 10:24:13;;;;;;;14.13;6.03;;;6.10;61.50;;;;;;4977127;28;20129;-86
2022/03/01 10:26:39;;;;;;;10.30;4.97;;;6.10;62.40;;;;;;4976495;28;20096;-78
2022/03/01 10:29:06;;;;;;;11.80;5.17;;;6.30;63.90;;;;;;4976023;28;20404;-79
2022/03/01 10:31:36;;;;;;;14.67;5.40;;;6.40;61.50;;;;;;4976286;28;20037;-79
2022/03/01 10:34:04;;;;;;;13.57;6.00;;;6.40;62.10;;;;;;4976938;28;20391;-78
2022/03/01 10:36:31;;;;;;;13.53;5.30;;;6.40;59.40;;;;;;4976528;28;20030;-79
2022/03/01 10:39:30;;;;;;;13.63;5.80;;;6.50;60.00;;;;;;4977249;28;20049;-79
2022/03/01 10:41:57;;;;;;;13.53;5.73;;;6.50;58.00;;;;;;4990125;28;20061;-81
2022/03/01 10:44:25;;;;;;;9.00;4.93;;;6.50;58.30;;;;;;4976812;28;20035;-79
2022/03/01 10:46:53;;;;;;;11.33;5.67;;;6.60;57.80;;;;;;4975984;28;20049;-79
2022/03/01 10:49:24;;;;;;;15.10;5.83;;;6.60;57.20;;;;;;4976315;28;20038;-79
2022/03/01 10:51:53;;;;;;;11.43;6.00;;;6.60;57.40;;;;;;4974560;28;20022;-80
2022/03/01 10:54:27;;;;;;;10.13;5.20;;;6.60;56.90;;;;;;4976364;28;20038;-79
2022/03/01 10:56:56;;;;;;;12.67;5.33;;;6.50;57.80;;;;;;4993251;28;20026;-79
2022/03/01 10:59:26;;;;;;;11.77;5.50;;;6.60;55.60;;;;;;4993104;28;20027;-79
2022/03/01 11:01:52;;;;;;;9.43;4.97;;;6.50;55.10;;;;;;4975997;28;20038;-79
2022/03/01 11:04:21;;;;;;;9.90;5.40;;;6.50;55.40;;;;;;4976494;28;20554;-79
2022/03/01 11:06:48;;;;;;;11.30;5.27;;;6.40;54.30;;;;;;4976018;28;20027;-79
2022/03/01 11:09:15;;;;;;;15.20;5.50;;;6.40;54.90;;;;;;4976709;28;20101;-79
2022/03/01 11:11:42;;;;;;;10.87;5.30;;;6.30;54.60;;;;;;4956720;28;20054;-79
2022/03/01 11:14:10;;;;;;;7.93;4.57;;;6.30;56.10;;;;;;4964164;28;20383;-80
2022/03/01 11:17:04;;;;;;;11.83;5.20;;;6.30;55.50;;;;;;4975468;28;20026;-79
2022/03/01 11:19:54;;;;;;;14.17;5.10;;;6.30;54.20;;;;;;4993739;28;20129;-79
2022/03/01 11:22:41;;;;;;;10.80;4.60;;;6.40;55.10;;;;;;4976835;28;20058;-80
2022/03/01 11:25:17;;;;;;;9.00;4.80;;;6.60;56.30;;;;;;4994102;28;20072;-80
2022/03/01 11:27:46;;;;;;;14.17;6.00;;;6.60;55.80;;;;;;4960836;28;20026;-81
2022/03/01 11:30:13;;;;;;;9.60;4.60;;;6.70;54.60;;;;;;4976737;28;20050;-80
2022/03/01 11:32:44;;;;;;;8.73;4.60;;;6.80;54.50;;;;;;4975549;28;20511;-80
2022/03/01 11:35:22;;;;;;;9.60;4.63;;;6.90;53.30;;;;;;4976588;28;20035;-80
2022/03/01 11:38:08;;;;;;;8.60;3.93;;;7.00;51.30;;;;;;4956204;28;20042;-80
2022/03/01 11:40:36;;;;;;;10.40;4.57;;;7.10;51.30;;;;;;4966325;28;20133;-79
2022/03/01 11:43:14;;;;;;;9.27;4.90;;;7.00;50.20;;;;;;4975807;28;20029;-79
2022/03/01 11:46:06;;;;;;;10.03;4.13;;;7.10;51.10;;;;;;4992374;28;20027;-80
2022/03/01 11:48:50;;;;;;;8.17;4.10;;;7.20;51.40;;;;;;4973970;28;20369;-79
2022/03/01 11:51:16;;;;;;;8.77;3.97;;;7.40;48.70;;;;;;4975958;28;20022;-80
2022/03/01 11:53:45;;;;;;;8.83;4.47;;;7.40;48.50;;;;;;4956146;28;20130;-80
2022/03/01 11:56:12;;;;;;;8.33;4.77;;;7.40;50.00;;;;;;4981267;28;20106;-80
2022/03/01 11:58:38;;;;;;;9.37;4.63;;;7.50;50.70;;;;;;4992187;28;20050;-79
2022/03/01 12:01:09;;;;;;;10.07;5.20;;;7.60;52.30;;;;;;4975149;28;20585;-79
2022/03/01 12:03:37;;;;;;;13.37;4.80;;;7.60;48.90;;;;;;4974431;28;20048;-78
2022/03/01 12:06:05;;;;;;;11.30;4.87;;;7.70;49.50;;;;;;4975157;28;20045;-79
2022/03/01 12:08:31;;;;;;;12.97;4.90;;;7.70;48.70;;;;;;4974759;28;20030;-78
2022/03/01 12:11:02;;;;;;;11.20;5.20;;;7.90;49.90;;;;;;4977651;28;20027;-79
2022/03/01 12:13:45;;;;;;;10.05;4.80;;;8.00;48.80;;;;;;4995748;28;20109;-79
2022/03/01 12:16:24;;;;;;;9.93;4.70;;;8.30;49.50;;;;;;4978774;28;20065;-79
2022/03/01 12:18:50;;;;;;;8.60;4.90;;;8.50;50.30;;;;;;4971355;28;20093;-79
2022/03/01 12:21:16;;;;;;;11.30;5.15;;;8.70;48.10;;;;;;4978902;28;20026;-79
2022/03/01 12:23:44;;;;;;;9.63;5.03;;;8.80;46.60;;;;;;4995883;28;20037;-78
2022/03/01 12:26:13;;;;;;;10.13;4.72;;;8.90;46.60;;;;;;4979128;28;20388;-80
2022/03/01 12:28:49;;;;;;;10.77;5.05;;;8.70;45.00;;;;;;4978499;28;20034;-79
2022/03/01 12:31:26;;;;;;;9.18;5.03;;;8.60;46.50;;;;;;4979017;28;20041;-79
2022/03/01 12:33:55;;;;;;;9.27;4.30;;;8.60;47.10;;;;;;4978719;28;20088;-79
2022/03/01 12:36:31;;;;;;;8.77;4.25;;;8.60;47.70;;;;;;4978903;28;20055;-79
2022/03/01 12:39:00;;;;;;;8.70;4.32;;;8.70;46.70;;;;;;4979186;28;20031;-79
2022/03/01 12:41:26;;;;;;;8.50;4.45;;;8.90;46.00;;;;;;4979133;28;20061;-80
2022/03/01 12:43:57;;;;;;;10.80;4.40;;;9.10;45.70;;;;;;4978621;28;20472;-80
2022/03/01 12:46:24;;;;;;;9.85;4.72;;;9.20;45.60;;;;;;4979148;28;20109;-80
2022/03/01 12:48:51;;;;;;;12.20;4.55;;;9.50;45.90;;;;;;4980313;28;20060;-80